createdAt,value
2024-02-08T00:00:22.385Z,2.7
2024-02-08T00:01:25.548Z,2.7
2024-02-08T00:02:27.384Z,2.7
2024-02-08T00:03:29.387Z,2.7
2024-02-08T00:04:31.451Z,2.6
2024-02-08T00:05:33.462Z,2.5
2024-02-08T00:06:35.485Z,2.5
2024-02-08T00:07:37.441Z,2.4
2024-02-08T00:08:39.385Z,2.4
2024-02-08T00:09:41.376Z,2.4
2024-02-08T00:10:43.407Z,2.4
2024-02-08T00:11:46.366Z,2.4
2024-02-08T00:12:48.379Z,2.4
2024-02-08T00:13:50.396Z,2.4
2024-02-08T00:14:53.379Z,2.4
2024-02-08T00:15:56.777Z,2.4
2024-02-08T00:16:57.417Z,2.5
2024-02-08T00:17:59.446Z,2.5
2024-02-08T00:19:01.422Z,2.5
2024-02-08T00:20:03.569Z,2.4
2024-02-08T00:21:06.389Z,2.4
2024-02-08T00:22:08.388Z,2.5
2024-02-08T00:22:39.414Z,2.5
2024-02-08T00:23:10.413Z,2.5
2024-02-08T00:23:41.380Z,2.5
2024-02-08T00:24:12.382Z,2.5
2024-02-08T00:24:43.383Z,2.5
2024-02-08T00:25:14.382Z,2.5
2024-02-08T00:25:45.434Z,2.5
2024-02-08T00:26:16.422Z,2.5
2024-02-08T00:26:47.377Z,2.4
2024-02-08T00:27:18.394Z,2.4
2024-02-08T00:27:49.407Z,2.4
2024-02-08T00:28:20.397Z,2.4
2024-02-08T00:29:22.390Z,2.4
2024-02-08T00:29:53.371Z,2.4
2024-02-08T00:30:24.389Z,2.4
2024-02-08T00:30:55.397Z,2.4
2024-02-08T00:31:26.419Z,2.5
2024-02-08T00:31:57.396Z,2.5
2024-02-08T00:32:28.422Z,2.5
2024-02-08T00:32:59.401Z,2.5
2024-02-08T00:33:30.556Z,2.5
2024-02-08T00:34:01.410Z,2.5
2024-02-08T00:34:32.485Z,2.5
2024-02-08T00:35:04.058Z,2.4
2024-02-08T00:35:34.426Z,2.5
2024-02-08T00:36:05.383Z,2.5
2024-02-08T00:36:36.394Z,2.5
2024-02-08T00:37:07.382Z,2.6
2024-02-08T00:37:38.437Z,2.6
2024-02-08T00:38:09.503Z,2.6
2024-02-08T00:38:40.549Z,2.7
2024-02-08T00:39:11.379Z,2.8
2024-02-08T00:39:42.377Z,2.8
2024-02-08T00:40:13.424Z,2.8
2024-02-08T00:40:44.395Z,2.9
2024-02-08T00:41:15.404Z,2.9
2024-02-08T00:41:46.383Z,2.8
2024-02-08T00:42:17.373Z,2.8
2024-02-08T00:42:48.379Z,2.8
2024-02-08T00:43:19.424Z,2.8
2024-02-08T00:43:50.448Z,2.8
2024-02-08T00:44:22.390Z,2.8
2024-02-08T00:44:53.380Z,2.8
2024-02-08T00:45:24.397Z,2.8
2024-02-08T00:45:55.468Z,2.7
2024-02-08T00:46:26.415Z,2.7
2024-02-08T00:46:57.464Z,2.7
2024-02-08T00:47:28.407Z,2.6
2024-02-08T00:47:59.428Z,2.6
2024-02-08T00:48:30.530Z,2.6
2024-02-08T00:49:01.455Z,2.6
2024-02-08T00:49:32.426Z,2.6
2024-02-08T00:50:03.460Z,2.6
2024-02-08T00:50:34.405Z,2.6
2024-02-08T00:51:05.397Z,2.6
2024-02-08T00:51:37.396Z,2.5
2024-02-08T00:52:08.402Z,2.5
2024-02-08T00:52:39.432Z,2.5
2024-02-08T00:53:10.485Z,2.5
2024-02-08T00:53:41.412Z,2.5
2024-02-08T00:54:12.413Z,2.5
2024-02-08T00:55:15.392Z,2.4
2024-02-08T00:56:17.444Z,2.3
2024-02-08T00:57:19.398Z,2.3
2024-02-08T00:58:21.397Z,2.3
2024-02-08T00:59:25.420Z,2.3
2024-02-08T01:00:28.386Z,2.3
2024-02-08T01:01:30.562Z,2.3
2024-02-08T01:02:32.398Z,2.3
2024-02-08T01:03:34.513Z,2.3
2024-02-08T01:04:37.424Z,2.3
2024-02-08T01:05:39.461Z,2.3
2024-02-08T01:06:41.400Z,2.4
2024-02-08T01:07:43.484Z,2.4
2024-02-08T01:08:45.414Z,2.5
2024-02-08T01:09:47.419Z,2.5
2024-02-08T01:10:50.419Z,2.5
2024-02-08T01:11:52.419Z,2.6
2024-02-08T01:12:54.392Z,2.6
2024-02-08T01:13:56.478Z,2.6
2024-02-08T01:14:58.415Z,2.7
2024-02-08T01:16:00.401Z,2.7
2024-02-08T01:17:02.432Z,2.7
2024-02-08T01:18:04.417Z,2.7
2024-02-08T01:19:06.440Z,2.7
2024-02-08T01:20:08.469Z,2.7
2024-02-08T01:21:10.408Z,2.7
2024-02-08T01:22:13.395Z,2.6
2024-02-08T01:23:15.448Z,2.5
2024-02-08T01:24:17.400Z,2.4
2024-02-08T01:25:19.437Z,2.3
2024-02-08T01:26:21.409Z,2.3
2024-02-08T01:27:23.429Z,2.3
2024-02-08T01:28:25.488Z,2.2
2024-02-08T01:29:27.487Z,2.1
2024-02-08T01:30:29.413Z,2.1
2024-02-08T01:31:31.421Z,2.1
2024-02-08T01:32:33.415Z,2.1
2024-02-08T01:33:35.550Z,2.1
2024-02-08T01:34:38.451Z,2.1
2024-02-08T01:35:40.430Z,2
2024-02-08T01:36:42.412Z,2
2024-02-08T01:37:44.466Z,2
2024-02-08T01:38:46.405Z,2.1
2024-02-08T01:39:49.410Z,2
2024-02-08T01:40:51.465Z,2
2024-02-08T01:41:53.422Z,2
2024-02-08T01:42:55.422Z,2
2024-02-08T01:43:57.413Z,2
2024-02-08T01:44:59.451Z,2
2024-02-08T01:46:01.427Z,2
2024-02-08T01:47:03.555Z,2
2024-02-08T01:48:05.467Z,2
2024-02-08T01:49:07.443Z,2
2024-02-08T01:50:09.441Z,2
2024-02-08T01:51:11.428Z,2
2024-02-08T01:52:13.434Z,2
2024-02-08T01:53:15.640Z,2
2024-02-08T01:54:17.425Z,2
2024-02-08T01:55:19.438Z,2
2024-02-08T01:56:21.513Z,2.1
2024-02-08T01:57:23.442Z,2.2
2024-02-08T01:58:25.533Z,2.2
2024-02-08T01:59:27.435Z,2.2
2024-02-08T02:00:30.643Z,2.2
2024-02-08T02:01:31.467Z,2.2
2024-02-08T02:02:33.437Z,2.2
2024-02-08T02:03:35.569Z,2.3
2024-02-08T02:04:37.439Z,2.3
2024-02-08T02:05:39.448Z,2.3
2024-02-08T02:06:41.460Z,2.3
2024-02-08T02:07:43.437Z,2.4
2024-02-08T02:08:45.424Z,2.4
2024-02-08T02:09:47.454Z,2.5
2024-02-08T02:10:49.475Z,2.5
2024-02-08T02:11:52.553Z,2.6
2024-02-08T02:12:54.420Z,2.7
2024-02-08T02:13:56.464Z,2.7
2024-02-08T02:14:58.428Z,2.7
2024-02-08T02:16:00.484Z,2.7
2024-02-08T02:17:02.490Z,2.8
2024-02-08T02:18:04.530Z,2.8
2024-02-08T02:19:06.500Z,2.9
2024-02-08T02:20:08.533Z,2.9
2024-02-08T02:21:10.459Z,2.9
2024-02-08T02:22:12.469Z,3
2024-02-08T02:23:14.436Z,3.1
2024-02-08T02:24:16.449Z,3.1
2024-02-08T02:25:18.426Z,3.2
2024-02-08T02:26:20.456Z,3.3
2024-02-08T02:27:22.456Z,3.3
2024-02-08T02:28:24.465Z,3.3
2024-02-08T02:29:26.441Z,3.3
2024-02-08T02:30:28.473Z,3.3
2024-02-08T02:31:30.726Z,3.2
2024-02-08T02:32:32.562Z,3.2
2024-02-08T02:35:56.844Z,3.2
2024-02-08T02:36:58.453Z,3.2
2024-02-08T02:38:00.540Z,3.2
2024-02-08T02:39:02.438Z,3.3
2024-02-08T02:40:04.451Z,3.2
2024-02-08T02:41:06.638Z,3.2
2024-02-08T02:42:08.475Z,3.2
2024-02-08T02:43:10.442Z,3.3
2024-02-08T02:44:12.484Z,3.2
2024-02-08T02:45:14.457Z,3.2
2024-02-08T02:46:16.476Z,3.2
2024-02-08T02:47:18.492Z,3.2
2024-02-08T02:48:20.492Z,3.2
2024-02-08T02:49:22.449Z,3.2
2024-02-08T02:50:24.484Z,3.2
2024-02-08T02:51:26.479Z,3.2
2024-02-08T02:52:28.483Z,3.2
2024-02-08T02:53:30.739Z,3.3
2024-02-08T02:54:32.450Z,3.3
2024-02-08T02:55:34.476Z,3.3
2024-02-08T02:56:36.478Z,3.3
2024-02-08T02:57:38.453Z,3.4
2024-02-08T02:58:40.462Z,3.3
2024-02-08T02:59:42.462Z,3.3
2024-02-08T03:00:44.515Z,3.4
2024-02-08T03:01:46.477Z,3.3
2024-02-08T03:02:48.451Z,3.3
2024-02-08T03:03:50.535Z,3.3
2024-02-08T03:04:52.527Z,3.3
2024-02-08T03:05:55.446Z,3.2
2024-02-08T03:06:57.648Z,3.3
2024-02-08T03:07:59.499Z,3.2
2024-02-08T03:09:01.467Z,3.2
2024-02-08T03:10:03.475Z,3.2
2024-02-08T03:11:05.570Z,3.2
2024-02-08T03:12:08.465Z,3.2
2024-02-08T03:13:10.472Z,3.2
2024-02-08T03:14:12.896Z,3.2
2024-02-08T03:15:14.460Z,3.2
2024-02-08T03:16:16.594Z,3.2
2024-02-08T03:17:18.513Z,3.2
2024-02-08T03:18:20.467Z,3.1
2024-02-08T03:19:22.485Z,3.2
2024-02-08T03:20:24.507Z,3.2
2024-02-08T03:21:26.467Z,3.2
2024-02-08T03:22:28.496Z,3.2
2024-02-08T03:23:30.777Z,3.1
2024-02-08T03:24:33.671Z,3.2
2024-02-08T03:25:35.501Z,3.1
2024-02-08T03:26:37.475Z,3.2
2024-02-08T03:27:39.469Z,3.1
2024-02-08T03:28:41.503Z,3.1
2024-02-08T03:29:43.468Z,3.2
2024-02-08T03:30:45.517Z,3.1
2024-02-08T03:31:47.555Z,3.2
2024-02-08T03:32:50.481Z,3.1
2024-02-08T03:33:52.476Z,3.1
2024-02-08T03:34:54.772Z,3.1
2024-02-08T03:35:56.511Z,3.1
2024-02-08T03:36:58.483Z,3
2024-02-08T03:38:00.496Z,3
2024-02-08T03:39:02.473Z,3
2024-02-08T03:40:04.491Z,3
2024-02-08T03:41:06.530Z,3
2024-02-08T03:42:08.469Z,3
2024-02-08T03:43:10.498Z,2.9
2024-02-08T03:44:12.571Z,3
2024-02-08T03:45:14.479Z,2.9
2024-02-08T03:46:16.474Z,2.9
2024-02-08T03:47:18.627Z,2.9
2024-02-08T03:48:20.531Z,2.8
2024-02-08T03:49:22.476Z,2.8
2024-02-08T03:50:24.502Z,2.7
2024-02-08T03:51:26.477Z,2.7
2024-02-08T03:52:28.509Z,2.7
2024-02-08T03:53:30.960Z,2.6
2024-02-08T03:54:32.590Z,2.6
2024-02-08T03:55:34.512Z,2.6
2024-02-08T03:56:36.544Z,2.6
2024-02-08T03:57:38.492Z,2.6
2024-02-08T03:58:40.536Z,2.5
2024-02-08T03:59:43.022Z,2.5
2024-02-08T04:00:44.481Z,2.4
2024-02-08T04:01:46.563Z,2.4
2024-02-08T04:02:48.489Z,2.4
2024-02-08T04:03:50.508Z,2.4
2024-02-08T04:04:52.555Z,2.3
2024-02-08T04:05:54.529Z,2.3
2024-02-08T04:06:56.523Z,2.3
2024-02-08T04:07:58.705Z,2.3
2024-02-08T04:09:00.543Z,2.3
2024-02-08T04:10:02.491Z,2.2
2024-02-08T04:11:04.505Z,2.2
2024-02-08T04:12:06.493Z,2.2
2024-02-08T04:13:08.492Z,2.2
2024-02-08T04:14:10.537Z,2.2
2024-02-08T04:15:12.517Z,2.2
2024-02-08T04:16:14.498Z,2.2
2024-02-08T04:17:16.511Z,2.3
2024-02-08T04:18:18.545Z,2.2
2024-02-08T04:19:20.540Z,2.2
2024-02-08T04:20:22.479Z,2.3
2024-02-08T04:21:24.516Z,2.2
2024-02-08T04:22:26.508Z,2.2
2024-02-08T04:23:30.037Z,2.3
2024-02-08T04:24:30.855Z,2.3
2024-02-08T04:25:32.521Z,2.3
2024-02-08T04:26:34.497Z,2.3
2024-02-08T04:27:36.526Z,2.3
2024-02-08T04:28:38.536Z,2.3
2024-02-08T04:29:40.514Z,2.3
2024-02-08T04:30:42.510Z,2.3
2024-02-08T04:31:44.589Z,2.2
2024-02-08T04:32:46.564Z,2.2
2024-02-08T04:33:48.629Z,2.2
2024-02-08T04:34:50.539Z,2.2
2024-02-08T04:35:52.496Z,2.2
2024-02-08T04:36:54.523Z,2.2
2024-02-08T04:37:56.613Z,2.2
2024-02-08T04:38:58.521Z,2.2
2024-02-08T04:40:00.510Z,2.2
2024-02-08T04:41:02.559Z,2.3
2024-02-08T04:42:04.519Z,2.2
2024-02-08T04:43:06.534Z,2.2
2024-02-08T04:44:08.627Z,2.3
2024-02-08T04:45:10.523Z,2.4
2024-02-08T04:46:13.514Z,2.4
2024-02-08T04:47:15.514Z,2.4
2024-02-08T04:48:17.608Z,2.4
2024-02-08T04:49:19.507Z,2.4
2024-02-08T04:50:21.568Z,2.4
2024-02-08T04:51:23.509Z,2.4
2024-02-08T04:52:25.544Z,2.4
2024-02-08T04:53:27.499Z,2.4
2024-02-08T04:54:29.505Z,2.4
2024-02-08T04:55:31.528Z,2.4
2024-02-08T04:56:33.520Z,2.4
2024-02-08T04:57:35.536Z,2.4
2024-02-08T04:59:39.564Z,2.4
2024-02-08T05:00:41.559Z,2.4
2024-02-08T05:01:43.505Z,2.4
2024-02-08T05:02:45.515Z,2.4
2024-02-08T05:03:47.512Z,2.5
2024-02-08T05:04:49.600Z,2.6
2024-02-08T05:05:51.572Z,2.6
2024-02-08T05:06:53.675Z,2.6
2024-02-08T05:07:55.589Z,2.6
2024-02-08T05:08:57.525Z,2.6
2024-02-08T05:09:59.531Z,2.7
2024-02-08T05:11:01.568Z,2.7
2024-02-08T05:12:03.524Z,2.6
2024-02-08T05:13:05.539Z,2.6
2024-02-08T05:14:07.513Z,2.6
2024-02-08T05:15:09.513Z,2.6
2024-02-08T05:16:11.545Z,2.6
2024-02-08T05:17:13.519Z,2.5
2024-02-08T05:18:15.576Z,2.6
2024-02-08T05:19:17.608Z,2.6
2024-02-08T05:20:19.547Z,2.6
2024-02-08T05:21:21.535Z,2.6
2024-02-08T05:22:23.592Z,2.7
2024-02-08T05:23:25.520Z,2.7
2024-02-08T05:24:27.522Z,2.7
2024-02-08T05:25:29.631Z,2.8
2024-02-08T05:26:31.532Z,2.8
2024-02-08T05:27:33.538Z,2.8
2024-02-08T05:28:35.515Z,2.8
2024-02-08T05:29:37.532Z,2.9
2024-02-08T05:30:39.526Z,2.9
2024-02-08T05:31:41.543Z,2.9
2024-02-08T05:32:43.547Z,2.9
2024-02-08T05:33:45.612Z,2.9
2024-02-08T05:34:47.557Z,2.9
2024-02-08T05:35:49.544Z,2.9
2024-02-08T05:36:51.577Z,3
2024-02-08T05:37:53.525Z,2.9
2024-02-08T05:38:55.526Z,2.9
2024-02-08T05:39:57.585Z,3
2024-02-08T05:41:01.597Z,3
2024-02-08T05:42:01.546Z,2.9
2024-02-08T05:43:03.566Z,3
2024-02-08T05:44:08.530Z,3
2024-02-08T05:45:10.530Z,3
2024-02-08T05:46:12.547Z,3
2024-02-08T05:47:14.536Z,3
2024-02-08T05:48:16.615Z,3
2024-02-08T05:49:18.600Z,3
2024-02-08T05:50:20.544Z,3
2024-02-08T05:51:22.522Z,2.9
2024-02-08T05:52:24.591Z,2.9
2024-02-08T05:53:26.525Z,3
2024-02-08T05:54:28.540Z,2.9
2024-02-08T05:55:31.009Z,2.9
2024-02-08T05:56:32.534Z,2.9
2024-02-08T05:57:34.550Z,2.9
2024-02-08T05:58:36.568Z,2.9
2024-02-08T05:59:39.056Z,2.9
2024-02-08T06:00:40.573Z,2.9
2024-02-08T06:01:42.626Z,2.9
2024-02-08T06:02:44.556Z,2.9
2024-02-08T06:03:46.622Z,2.9
2024-02-08T06:04:48.575Z,2.9
2024-02-08T06:05:50.789Z,2.9
2024-02-08T06:06:52.571Z,2.9
2024-02-08T06:07:54.680Z,2.8
2024-02-08T06:08:56.588Z,2.8
2024-02-08T06:09:58.571Z,2.8
2024-02-08T06:11:00.583Z,2.8
2024-02-08T06:12:02.543Z,2.8
2024-02-08T06:13:04.580Z,2.7
2024-02-08T06:14:06.552Z,2.7
2024-02-08T06:15:08.545Z,2.7
2024-02-08T06:16:10.584Z,2.7
2024-02-08T06:17:12.602Z,2.7
2024-02-08T06:18:14.758Z,2.6
2024-02-08T06:19:16.672Z,2.6
2024-02-08T06:20:21.094Z,2.6
2024-02-08T06:21:30.671Z,2.6
2024-02-08T06:22:37.505Z,2.6
2024-02-08T06:23:41.738Z,2.6
2024-02-08T06:24:48.820Z,2.5
2024-02-08T06:25:48.578Z,2.5
2024-02-08T06:26:50.553Z,2.4
2024-02-08T06:27:54.639Z,2.4
2024-02-08T06:28:59.457Z,2.4
2024-02-08T06:30:01.900Z,2.4
2024-02-08T06:31:08.567Z,2.3
2024-02-08T06:32:10.634Z,2.3
2024-02-08T06:33:12.632Z,2.3
2024-02-08T06:34:15.705Z,2.3
2024-02-08T06:35:17.810Z,2.3
2024-02-08T06:36:20.551Z,2.3
2024-02-08T06:37:25.617Z,2.3
2024-02-08T06:38:28.561Z,2.3
2024-02-08T06:39:33.148Z,2.3
2024-02-08T06:40:34.611Z,2.3
2024-02-08T06:41:36.561Z,2.3
2024-02-08T06:42:38.567Z,2.3
2024-02-08T06:43:40.569Z,2.3
2024-02-08T06:44:42.562Z,2.4
2024-02-08T06:45:44.583Z,2.4
2024-02-08T06:46:46.590Z,2.4
2024-02-08T06:47:48.634Z,2.4
2024-02-08T06:48:50.839Z,2.4
2024-02-08T06:49:52.642Z,2.4
2024-02-08T06:50:54.563Z,2.5
2024-02-08T06:51:56.596Z,2.5
2024-02-08T06:52:58.569Z,2.5
2024-02-08T06:54:00.591Z,2.5
2024-02-08T06:55:02.596Z,2.5
2024-02-08T06:56:04.648Z,2.5
2024-02-08T06:57:06.584Z,2.5
2024-02-08T06:58:08.614Z,2.5
2024-02-08T06:59:10.615Z,2.5
2024-02-08T07:00:12.583Z,2.5
2024-02-08T07:01:14.679Z,2.6
2024-02-08T07:02:16.570Z,2.6
2024-02-08T07:03:18.587Z,2.6
2024-02-08T07:04:20.637Z,2.6
2024-02-08T07:05:22.575Z,2.6
2024-02-08T07:06:24.583Z,2.6
2024-02-08T07:07:26.718Z,2.7
2024-02-08T07:08:28.598Z,2.7
2024-02-08T07:09:30.937Z,2.7
2024-02-08T07:10:32.625Z,2.7
2024-02-08T07:11:34.648Z,2.7
2024-02-08T07:12:36.579Z,2.8
2024-02-08T07:13:38.593Z,2.7
2024-02-08T07:14:40.575Z,2.7
2024-02-08T07:15:42.648Z,2.8
2024-02-08T07:16:44.574Z,2.8
2024-02-08T07:17:46.677Z,2.8
2024-02-08T07:18:49.670Z,2.8
2024-02-08T07:19:50.622Z,2.8
2024-02-08T07:20:52.609Z,2.9
2024-02-08T07:21:55.145Z,2.9
2024-02-08T07:22:56.574Z,2.9
2024-02-08T07:23:58.578Z,2.9
2024-02-08T07:25:03.217Z,2.9
2024-02-08T07:26:02.592Z,2.9
2024-02-08T07:27:04.588Z,3
2024-02-08T07:28:07.655Z,3.1
2024-02-08T07:29:09.586Z,3.1
2024-02-08T07:30:11.578Z,3.1
2024-02-08T07:31:14.614Z,3.2
2024-02-08T07:32:16.625Z,3.2
2024-02-08T07:33:18.696Z,3.3
2024-02-08T07:34:20.671Z,3.3
2024-02-08T07:35:22.593Z,3.3
2024-02-08T07:36:25.185Z,3.4
2024-02-08T07:37:27.053Z,3.4
2024-02-08T07:38:28.597Z,3.4
2024-02-08T07:39:31.003Z,3.4
2024-02-08T07:40:32.690Z,3.5
2024-02-08T07:41:34.596Z,3.5
2024-02-08T07:42:36.615Z,3.5
2024-02-08T07:43:38.605Z,3.6
2024-02-08T07:44:40.609Z,3.6
2024-02-08T07:45:42.576Z,3.7
2024-02-08T07:46:44.611Z,3.7
2024-02-08T07:47:46.622Z,3.7
2024-02-08T07:48:48.621Z,3.7
2024-02-08T07:49:50.651Z,3.7
2024-02-08T07:50:54.599Z,3.8
2024-02-08T07:51:56.625Z,3.8
2024-02-08T07:52:58.600Z,3.8
2024-02-08T07:54:00.616Z,3.8
2024-02-08T07:55:02.658Z,3.8
2024-02-08T07:56:04.600Z,3.8
2024-02-08T07:57:06.608Z,3.8
2024-02-08T07:58:08.645Z,3.9
2024-02-08T07:59:10.604Z,3.9
2024-02-08T08:00:12.598Z,3.8
2024-02-08T08:01:14.702Z,3.8
2024-02-08T08:02:16.632Z,3.8
2024-02-08T08:03:18.604Z,3.7
2024-02-08T08:04:20.616Z,3.7
2024-02-08T08:05:22.701Z,3.7
2024-02-08T08:06:24.663Z,3.6
2024-02-08T08:07:26.699Z,3.5
2024-02-08T08:08:28.638Z,3.4
2024-02-08T08:09:30.988Z,3.4
2024-02-08T08:10:32.794Z,3.5
2024-02-08T08:11:34.625Z,3.5
2024-02-08T08:12:37.898Z,3.5
2024-02-08T08:13:39.640Z,3.4
2024-02-08T08:14:41.601Z,3.4
2024-02-08T08:15:43.726Z,3.4
2024-02-08T08:16:45.604Z,3.5
2024-02-08T08:17:47.642Z,3.6
2024-02-08T08:18:49.633Z,3.6
2024-02-08T08:19:51.683Z,3.7
2024-02-08T08:20:53.622Z,3.6
2024-02-08T08:21:55.662Z,3.6
2024-02-08T08:22:57.690Z,3.7
2024-02-08T08:23:59.624Z,3.7
2024-02-08T08:25:01.699Z,3.7
2024-02-08T08:26:03.614Z,3.8
2024-02-08T08:27:05.608Z,3.8
2024-02-08T08:28:07.654Z,3.8
2024-02-08T08:29:09.612Z,3.9
2024-02-08T08:30:11.631Z,4
2024-02-08T08:31:13.681Z,4.1
2024-02-08T08:32:15.635Z,4.1
2024-02-08T08:33:17.922Z,4.2
2024-02-08T08:34:19.795Z,4.2
2024-02-08T08:35:21.662Z,4.2
2024-02-08T08:36:23.621Z,4.2
2024-02-08T08:37:25.671Z,4.3
2024-02-08T08:38:28.629Z,4.3
2024-02-08T08:39:31.028Z,4.3
2024-02-08T08:40:32.686Z,4.3
2024-02-08T08:41:34.694Z,4.3
2024-02-08T08:42:36.629Z,4.3
2024-02-08T08:43:38.771Z,4.4
2024-02-08T08:44:40.623Z,4.5
2024-02-08T08:45:42.646Z,4.5
2024-02-08T08:46:44.642Z,4.6
2024-02-08T08:47:47.678Z,4.6
2024-02-08T08:48:49.722Z,4.7
2024-02-08T08:49:51.657Z,4.7
2024-02-08T08:50:53.649Z,4.8
2024-02-08T08:51:55.692Z,4.7
2024-02-08T08:52:57.649Z,4.6
2024-02-08T08:53:59.623Z,4.6
2024-02-08T08:55:01.634Z,4.6
2024-02-08T08:56:03.669Z,4.5
2024-02-08T08:57:05.670Z,4.5
2024-02-08T08:58:07.666Z,4.4
2024-02-08T08:59:09.672Z,4.2
2024-02-08T09:00:11.633Z,4.2
2024-02-08T09:01:13.833Z,4.2
2024-02-08T09:02:15.711Z,4.3
2024-02-08T09:03:17.629Z,4.4
2024-02-08T09:04:19.663Z,4.5
2024-02-08T09:05:21.725Z,4.6
2024-02-08T09:06:23.636Z,4.7
2024-02-08T09:07:27.405Z,4.8
2024-02-08T09:08:27.723Z,4.9
2024-02-08T09:09:29.915Z,5.1
2024-02-08T09:10:31.660Z,5.3
2024-02-08T09:11:33.644Z,5.4
2024-02-08T09:12:36.663Z,5.5
2024-02-08T09:13:38.965Z,5.6
2024-02-08T09:14:40.649Z,5.5
2024-02-08T09:15:42.642Z,5.5
2024-02-08T09:16:44.677Z,5.4
2024-02-08T09:17:46.645Z,5.4
2024-02-08T09:18:48.777Z,5.5
2024-02-08T09:19:50.700Z,5.6
2024-02-08T09:20:52.630Z,5.6
2024-02-08T09:21:54.684Z,5.7
2024-02-08T09:22:56.676Z,5.6
2024-02-08T09:23:58.639Z,5.5
2024-02-08T09:25:00.691Z,5.5
2024-02-08T09:26:02.780Z,5.4
2024-02-08T09:27:04.679Z,5.2
2024-02-08T09:28:06.813Z,5.1
2024-02-08T09:29:08.652Z,5
2024-02-08T09:30:10.679Z,5
2024-02-08T09:31:12.681Z,4.8
2024-02-08T09:32:14.646Z,4.7
2024-02-08T09:33:16.706Z,4.7
2024-02-08T09:34:18.708Z,4.7
2024-02-08T09:35:20.859Z,4.7
2024-02-08T09:36:22.656Z,4.8
2024-02-08T09:37:24.679Z,5
2024-02-08T09:38:27.803Z,4.8
2024-02-08T09:39:29.646Z,4.7
2024-02-08T09:40:31.704Z,4.6
2024-02-08T09:41:33.650Z,4.7
2024-02-08T09:42:35.655Z,4.9
2024-02-08T09:43:37.693Z,5
2024-02-08T09:44:39.641Z,5.2
2024-02-08T09:45:42.157Z,5.3
2024-02-08T09:46:43.750Z,5.3
2024-02-08T09:47:45.649Z,5.3
2024-02-08T09:48:47.712Z,5.3
2024-02-08T09:49:49.692Z,5.4
2024-02-08T09:50:51.716Z,5.5
2024-02-08T09:51:56.013Z,5.5
2024-02-08T09:52:59.654Z,5.5
2024-02-08T09:53:58.652Z,5.5
2024-02-08T09:55:00.787Z,5.5
2024-02-08T09:56:02.663Z,5.5
2024-02-08T09:57:04.895Z,5.5
2024-02-08T09:58:06.665Z,5.3
2024-02-08T09:59:10.169Z,5.1
2024-02-08T10:00:10.696Z,4.9
2024-02-08T10:01:12.710Z,4.7
2024-02-08T10:02:14.694Z,4.4
2024-02-08T10:03:16.710Z,4.4
2024-02-08T10:04:19.293Z,4.3
2024-02-08T10:05:21.112Z,4.1
2024-02-08T10:06:23.694Z,4.1
2024-02-08T10:07:25.688Z,4
2024-02-08T10:08:27.689Z,4.1
2024-02-08T10:09:29.679Z,4.1
2024-02-08T10:10:31.749Z,4.3
2024-02-08T10:11:33.733Z,4.6
2024-02-08T10:12:35.679Z,4.7
2024-02-08T10:13:37.740Z,5
2024-02-08T10:14:39.680Z,5.1
2024-02-08T10:15:41.875Z,5.3
2024-02-08T10:16:44.107Z,5.2
2024-02-08T10:17:45.711Z,5.2
2024-02-08T10:18:47.740Z,5.2
2024-02-08T10:19:49.911Z,5.3
2024-02-08T10:20:51.698Z,5.3
2024-02-08T10:21:53.667Z,5.4
2024-02-08T10:22:55.914Z,5.3
2024-02-08T10:23:57.669Z,5.4
2024-02-08T10:24:59.693Z,5.3
2024-02-08T10:26:01.675Z,5.3
2024-02-08T10:27:03.668Z,5.4
2024-02-08T10:28:05.705Z,5.4
2024-02-08T10:29:07.662Z,5.4
2024-02-08T10:30:09.676Z,5.3
2024-02-08T10:31:13.724Z,5.3
2024-02-08T10:32:15.711Z,5.1
2024-02-08T10:33:17.734Z,5
2024-02-08T10:34:19.742Z,4.9
2024-02-08T10:35:22.237Z,4.7
2024-02-08T10:36:26.091Z,4.7
2024-02-08T10:37:25.734Z,4.8
2024-02-08T10:38:27.819Z,4.9
2024-02-08T10:39:29.688Z,5
2024-02-08T10:40:31.864Z,5.2
2024-02-08T10:41:33.670Z,5.3
2024-02-08T10:42:35.681Z,5.5
2024-02-08T10:43:38.030Z,5.5
2024-02-08T10:44:39.666Z,5.6
2024-02-08T10:45:41.693Z,5.7
2024-02-08T10:46:43.817Z,5.8
2024-02-08T10:47:46.876Z,5.9
2024-02-08T10:48:47.801Z,5.9
2024-02-08T10:49:49.701Z,6
2024-02-08T10:50:51.707Z,6
2024-02-08T10:51:53.693Z,6.1
2024-02-08T10:52:55.680Z,6.2
2024-02-08T10:53:57.707Z,6.2
2024-02-08T10:54:59.692Z,6.1
2024-02-08T10:56:01.700Z,6
2024-02-08T10:57:03.681Z,5.9
2024-02-08T10:58:05.690Z,6
2024-02-08T10:59:07.705Z,5.9
2024-02-08T11:00:09.713Z,5.7
2024-02-08T11:01:11.774Z,5.7
2024-02-08T11:02:13.723Z,5.7
2024-02-08T11:03:15.965Z,5.6
2024-02-08T11:04:18.101Z,5.4
2024-02-08T11:05:20.208Z,5.3
2024-02-08T11:06:21.739Z,5.3
2024-02-08T11:07:23.722Z,5.3
2024-02-08T11:08:26.205Z,5.4
2024-02-08T11:09:27.694Z,5.3
2024-02-08T11:10:29.703Z,5.3
2024-02-08T11:11:31.700Z,5
2024-02-08T11:12:33.691Z,4.9
2024-02-08T11:13:35.751Z,4.9
2024-02-08T11:14:37.705Z,5
2024-02-08T11:15:39.746Z,5.1
2024-02-08T11:16:41.731Z,5.1
2024-02-08T11:17:43.727Z,5.3
2024-02-08T11:18:48.762Z,5.4
2024-02-08T11:19:51.849Z,5.5
2024-02-08T11:20:53.707Z,5.5
2024-02-08T11:21:55.718Z,5.5
2024-02-08T11:22:57.712Z,5.4
2024-02-08T11:23:59.713Z,5.4
2024-02-08T11:25:01.792Z,5.4
2024-02-08T11:26:03.693Z,5.1
2024-02-08T11:27:05.788Z,5.1
2024-02-08T11:28:14.274Z,5
2024-02-08T11:29:09.743Z,5
2024-02-08T11:30:11.707Z,5
2024-02-08T11:31:13.793Z,5
2024-02-08T11:32:15.708Z,5
2024-02-08T11:33:17.697Z,5.1
2024-02-08T11:34:19.737Z,5.2
2024-02-08T11:34:53.759Z,5.3
2024-02-08T11:35:24.732Z,5.3
2024-02-08T11:35:55.713Z,5.3
2024-02-08T11:36:26.702Z,5.2
2024-02-08T11:36:59.947Z,5.1
2024-02-08T11:37:38.634Z,5.2
2024-02-08T11:38:40.703Z,5.4
2024-02-08T11:39:42.719Z,5.3
2024-02-08T11:40:44.712Z,5.3
2024-02-08T11:41:46.717Z,5.4
2024-02-08T11:42:48.725Z,5.4
2024-02-08T11:43:50.720Z,5.5
2024-02-08T11:44:52.751Z,5.7
2024-02-08T11:45:54.723Z,5.8
2024-02-08T11:46:56.750Z,5.7
2024-02-08T11:47:58.824Z,5.5
2024-02-08T11:49:00.819Z,5.5
2024-02-08T11:50:03.291Z,5.5
2024-02-08T11:51:04.726Z,5.6
2024-02-08T11:52:06.788Z,5.6
2024-02-08T11:53:08.735Z,5.7
2024-02-08T11:54:10.794Z,5.7
2024-02-08T11:55:12.732Z,5.7
2024-02-08T11:56:14.708Z,5.7
2024-02-08T11:57:17.912Z,5.6
2024-02-08T11:58:18.781Z,5.6
2024-02-08T11:59:20.715Z,5.4
2024-02-08T12:00:22.731Z,5.4
2024-02-08T12:01:24.790Z,5.4
2024-02-08T12:02:26.714Z,5.5
2024-02-08T12:03:28.740Z,5.6
2024-02-08T12:04:31.326Z,5.6
2024-02-08T12:05:32.922Z,5.4
2024-02-08T12:06:34.731Z,5.3
2024-02-08T12:07:36.772Z,5.4
2024-02-08T12:08:43.084Z,5.4
2024-02-08T12:09:40.711Z,5.4
2024-02-08T12:10:43.363Z,5.4
2024-02-08T12:11:44.714Z,5.3
2024-02-08T12:12:46.743Z,5.2
2024-02-08T12:13:48.761Z,5
2024-02-08T12:14:50.718Z,5
2024-02-08T12:15:52.782Z,5.1
2024-02-08T12:16:54.737Z,5.2
2024-02-08T12:17:56.883Z,5.3
2024-02-08T12:18:58.779Z,5.2
2024-02-08T12:20:01.035Z,5.1
2024-02-08T12:21:02.852Z,5
2024-02-08T12:22:05.073Z,5
2024-02-08T12:23:06.755Z,4.9
2024-02-08T12:24:08.720Z,4.8
2024-02-08T12:25:10.748Z,4.9
2024-02-08T12:26:12.739Z,5.1
2024-02-08T12:27:15.934Z,5
2024-02-08T12:28:16.862Z,5
2024-02-08T12:29:18.734Z,5.1
2024-02-08T12:30:20.732Z,5.2
2024-02-08T12:31:22.789Z,5.3
2024-02-08T12:32:25.519Z,5.4
2024-02-08T12:33:26.815Z,5.5
2024-02-08T12:34:28.814Z,5.6
2024-02-08T12:35:31.301Z,5.7
2024-02-08T12:36:32.745Z,5.8
2024-02-08T12:37:34.797Z,5.8
2024-02-08T12:38:38.748Z,5.9
2024-02-08T12:39:38.729Z,5.9
2024-02-08T12:40:41.145Z,6
2024-02-08T12:41:42.874Z,6.1
2024-02-08T12:42:44.726Z,6.1
2024-02-08T12:43:46.770Z,6.1
2024-02-08T12:44:48.743Z,6
2024-02-08T12:45:50.764Z,5.9
2024-02-08T12:46:52.731Z,5.9
2024-02-08T12:47:54.784Z,6
2024-02-08T12:48:56.996Z,6.1
2024-02-08T12:50:02.623Z,6.1
2024-02-08T12:51:05.788Z,6.2
2024-02-08T12:52:07.780Z,6.3
2024-02-08T12:53:09.758Z,6.3
2024-02-08T12:54:11.738Z,6.3
2024-02-08T12:55:13.834Z,6.2
2024-02-08T12:56:17.122Z,6.1
2024-02-08T12:57:17.746Z,6
2024-02-08T12:58:19.823Z,6
2024-02-08T12:59:21.780Z,6
2024-02-08T13:00:23.749Z,6.1
2024-02-08T13:01:25.830Z,6.1
2024-02-08T13:02:27.763Z,5.9
2024-02-08T13:03:29.764Z,5.7
2024-02-08T13:04:31.846Z,5.7
2024-02-08T13:05:33.871Z,5.6
2024-02-08T13:06:35.824Z,5.6
2024-02-08T13:07:38.791Z,5.5
2024-02-08T13:08:39.782Z,5.4
2024-02-08T13:09:41.759Z,5.5
2024-02-08T13:10:43.844Z,5.7
2024-02-08T13:11:45.754Z,5.8
2024-02-08T13:12:47.777Z,6
2024-02-08T13:13:49.876Z,6.1
2024-02-08T13:14:51.776Z,6.1
2024-02-08T13:15:53.764Z,6.1
2024-02-08T13:16:55.766Z,6.2
2024-02-08T13:17:57.822Z,6.2
2024-02-08T13:18:59.789Z,6.3
2024-02-08T13:20:01.832Z,6.3
2024-02-08T13:21:05.036Z,6.3
2024-02-08T13:22:06.871Z,6.2
2024-02-08T13:23:11.047Z,6.2
2024-02-08T13:24:13.764Z,6.2
2024-02-08T13:25:15.852Z,6.3
2024-02-08T13:26:25.570Z,6.4
2024-02-08T13:27:22.786Z,6.5
2024-02-08T13:28:25.851Z,6.6
2024-02-08T13:29:32.502Z,6.7
2024-02-08T13:30:34.767Z,6.8
2024-02-08T13:31:38.246Z,6.8
2024-02-08T13:32:43.778Z,6.9
2024-02-08T13:33:15.092Z,6.9
2024-02-08T13:33:46.968Z,6.9
2024-02-08T13:34:52.615Z,7
2024-02-08T13:36:01.705Z,7.1
2024-02-08T13:37:04.789Z,7.1
2024-02-08T13:38:09.953Z,7.2
2024-02-08T13:39:12.778Z,7.2
2024-02-08T13:40:16.815Z,7.2
2024-02-08T13:41:23.766Z,7.2
2024-02-08T13:42:31.889Z,7.2
2024-02-08T13:43:32.629Z,7.2
2024-02-08T13:44:40.565Z,7.1
2024-02-08T13:45:48.866Z,7.1
2024-02-08T13:46:49.881Z,7
2024-02-08T13:47:58.808Z,6.9
2024-02-08T13:49:01.232Z,6.9
2024-02-08T13:50:04.887Z,6.8